createdAt,value
2023-03-27T00:01:30.864Z,100.00
2023-03-27T00:03:59.024Z,100.00
2023-03-27T00:06:27.670Z,100.00
2023-03-27T00:08:56.266Z,100.00
2023-03-27T00:11:25.273Z,100.00
2023-03-27T00:13:56.442Z,100.00
2023-03-27T00:16:27.181Z,100.00
2023-03-27T00:18:56.053Z,100.00
2023-03-27T00:21:24.536Z,100.00
2023-03-27T00:23:52.592Z,100.00
2023-03-27T00:26:22.540Z,100.00
2023-03-27T00:28:50.384Z,100.00
2023-03-27T00:31:18.464Z,100.00
2023-03-27T00:33:46.857Z,100.00
2023-03-27T00:36:15.508Z,100.00
2023-03-27T00:38:44.082Z,100.00
2023-03-27T00:41:12.896Z,100.00
2023-03-27T00:43:44.964Z,100.00
2023-03-27T00:46:16.096Z,100.00
2023-03-27T00:48:47.385Z,100.00
2023-03-27T00:51:16.714Z,100.00
2023-03-27T00:53:46.236Z,100.00
2023-03-27T00:56:16.915Z,100.00
2023-03-27T00:59:11.243Z,100.00
2023-03-27T01:01:40.516Z,100.00
2023-03-27T01:04:09.415Z,100.00
2023-03-27T01:06:39.373Z,100.00
2023-03-27T01:09:09.536Z,100.00
2023-03-27T01:12:07.803Z,100.00
2023-03-27T01:15:02.060Z,100.00
2023-03-27T01:18:08.125Z,100.00
2023-03-27T01:21:14.234Z,100.00
2023-03-27T01:24:09.634Z,100.00
2023-03-27T01:26:58.336Z,100.00
2023-03-27T01:29:39.508Z,100.00
2023-03-27T01:32:15.017Z,100.00
2023-03-27T01:35:20.357Z,100.00
2023-03-27T01:38:13.040Z,100.00
2023-03-27T01:41:06.254Z,100.00
2023-03-27T01:43:45.969Z,100.00
2023-03-27T01:46:21.301Z,100.00
2023-03-27T01:49:16.521Z,100.00
2023-03-27T01:51:49.283Z,100.00
2023-03-27T01:54:22.000Z,100.00
2023-03-27T01:56:55.219Z,100.00
2023-03-27T01:59:27.311Z,100.00
2023-03-27T02:02:04.691Z,100.00
2023-03-27T02:04:44.726Z,100.00
2023-03-27T02:07:19.006Z,100.00
2023-03-27T02:09:52.538Z,100.00
2023-03-27T02:12:34.171Z,100.00
2023-03-27T02:15:23.911Z,100.00
2023-03-27T02:18:05.216Z,100.00
2023-03-27T02:20:34.799Z,100.00
2023-03-27T02:23:04.121Z,100.00
2023-03-27T02:25:33.178Z,100.00
2023-03-27T02:28:26.569Z,100.00
2023-03-27T02:31:32.334Z,100.00
2023-03-27T02:34:20.576Z,100.00
2023-03-27T02:37:07.464Z,100.00
2023-03-27T02:40:15.753Z,100.00
2023-03-27T02:42:46.493Z,100.00
2023-03-27T02:45:51.881Z,100.00
2023-03-27T02:48:40.849Z,100.00
2023-03-27T02:51:36.772Z,100.00
2023-03-27T02:54:13.264Z,100.00
2023-03-27T02:56:46.977Z,100.00
2023-03-27T02:59:45.894Z,100.00
2023-03-27T03:02:18.290Z,100.00
2023-03-27T03:04:59.266Z,100.00
2023-03-27T03:07:30.383Z,100.00
2023-03-27T03:09:58.704Z,100.00
2023-03-27T03:12:27.010Z,100.00
2023-03-27T03:14:55.695Z,100.00
2023-03-27T03:17:23.944Z,100.00
2023-03-27T03:19:52.279Z,100.00
2023-03-27T03:22:20.880Z,100.00
2023-03-27T03:24:49.198Z,100.00
2023-03-27T03:27:22.894Z,100.00
2023-03-27T03:29:57.741Z,100.00
2023-03-27T03:32:30.526Z,100.00
2023-03-27T03:35:01.858Z,100.00
2023-03-27T03:37:38.896Z,100.00
2023-03-27T03:40:12.189Z,100.00
2023-03-27T03:42:46.428Z,100.00
2023-03-27T03:45:16.435Z,100.00
2023-03-27T03:47:45.909Z,100.00
2023-03-27T03:50:14.674Z,100.00
2023-03-27T03:52:43.478Z,100.00
2023-03-27T03:55:12.359Z,100.00
2023-03-27T03:57:41.096Z,100.00
2023-03-27T04:00:14.385Z,100.00
2023-03-27T04:02:51.673Z,100.00
2023-03-27T04:05:21.853Z,100.00
2023-03-27T04:07:53.069Z,100.00
2023-03-27T04:10:41.589Z,100.00
2023-03-27T04:13:22.381Z,100.00
2023-03-27T04:16:01.972Z,100.00
2023-03-27T04:18:41.638Z,100.00
2023-03-27T04:21:18.413Z,100.00
2023-03-27T04:23:51.792Z,100.00
2023-03-27T04:26:29.922Z,100.00
2023-03-27T04:29:16.211Z,100.00
2023-03-27T04:32:30.834Z,100.00
2023-03-27T04:35:28.217Z,100.00
2023-03-27T04:38:08.994Z,100.00
2023-03-27T04:40:49.303Z,100.00
2023-03-27T04:43:19.875Z,100.00
2023-03-27T04:45:48.689Z,100.00
2023-03-27T04:48:17.642Z,100.00
2023-03-27T04:50:50.687Z,100.00
2023-03-27T04:53:32.410Z,100.00
2023-03-27T04:56:01.889Z,100.00
2023-03-27T04:58:37.184Z,100.00
2023-03-27T05:01:10.159Z,100.00
2023-03-27T05:04:08.052Z,100.00
2023-03-27T05:06:51.760Z,100.00
2023-03-27T05:09:20.582Z,100.00
2023-03-27T05:11:50.776Z,100.00
2023-03-27T05:14:21.871Z,100.00
2023-03-27T05:16:51.124Z,100.00
2023-03-27T05:19:20.695Z,100.00
2023-03-27T05:21:57.460Z,100.00
2023-03-27T05:24:25.667Z,100.00
2023-03-27T05:26:54.092Z,100.00
2023-03-27T05:29:22.617Z,100.00
2023-03-27T05:32:01.139Z,100.00
2023-03-27T05:34:55.267Z,100.00
2023-03-27T05:37:26.362Z,100.00
2023-03-27T05:40:18.184Z,100.00
2023-03-27T05:42:47.097Z,100.00
2023-03-27T05:45:16.453Z,100.00
2023-03-27T05:47:53.154Z,100.00
2023-03-27T05:50:25.686Z,100.00
2023-03-27T05:52:59.544Z,100.00
2023-03-27T05:55:39.792Z,100.00
2023-03-27T05:58:10.410Z,100.00
2023-03-27T06:00:42.058Z,100.00
2023-03-27T06:03:13.856Z,100.00
2023-03-27T06:06:11.964Z,100.00
2023-03-27T06:08:42.729Z,100.00
2023-03-27T06:11:13.224Z,100.00
2023-03-27T06:13:45.805Z,100.00
2023-03-27T06:16:21.396Z,100.00
2023-03-27T06:19:07.926Z,100.00
2023-03-27T06:21:44.742Z,100.00
2023-03-27T06:24:12.808Z,100.00
2023-03-27T06:26:41.550Z,100.00
2023-03-27T06:29:11.083Z,100.00
2023-03-27T06:31:46.899Z,100.00
2023-03-27T06:34:22.671Z,100.00
2023-03-27T06:37:00.064Z,100.00
2023-03-27T06:39:28.520Z,100.00
2023-03-27T06:41:57.360Z,100.00
2023-03-27T06:44:48.129Z,100.00
2023-03-27T06:47:51.678Z,100.00
2023-03-27T06:50:35.983Z,100.00
2023-03-27T06:53:12.891Z,100.00
2023-03-27T06:55:50.121Z,100.00
2023-03-27T06:58:19.300Z,100.00
2023-03-27T07:00:49.631Z,100.00
2023-03-27T07:03:21.091Z,100.00
2023-03-27T07:06:07.512Z,100.00
2023-03-27T07:08:55.698Z,100.00
2023-03-27T07:11:24.125Z,100.00
2023-03-27T07:13:57.068Z,100.00
2023-03-27T07:16:29.564Z,100.00
2023-03-27T07:19:00.885Z,100.00
2023-03-27T07:21:31.207Z,100.00
2023-03-27T07:24:01.460Z,100.00
2023-03-27T07:26:34.017Z,100.00
2023-03-27T07:29:13.594Z,100.00
2023-03-27T07:31:57.732Z,100.00
2023-03-27T07:34:54.248Z,100.00
2023-03-27T07:37:38.473Z,100.00
2023-03-27T07:40:37.277Z,100.00
2023-03-27T07:43:26.185Z,100.00
2023-03-27T07:45:55.157Z,100.00
2023-03-27T07:48:25.259Z,100.00
2023-03-27T07:53:33.975Z,100.00
2023-03-27T07:56:26.924Z,100.00
2023-03-27T07:59:28.284Z,100.00
2023-03-27T08:01:59.597Z,100.00
2023-03-27T08:04:29.648Z,100.00
2023-03-27T08:07:05.688Z,100.00
2023-03-27T08:09:35.465Z,100.00
2023-03-27T08:12:04.482Z,100.00
2023-03-27T08:14:33.467Z,100.00
2023-03-27T08:17:16.342Z,100.00
2023-03-27T08:19:46.624Z,100.00
2023-03-27T08:22:17.272Z,100.00
2023-03-27T08:25:06.625Z,100.00
2023-03-27T08:27:36.188Z,100.00
2023-03-27T08:30:05.172Z,100.00
2023-03-27T08:32:36.806Z,100.00
2023-03-27T08:35:09.251Z,100.00
2023-03-27T08:37:37.651Z,100.00
2023-03-27T08:40:27.095Z,100.00
2023-03-27T08:43:19.422Z,100.00
2023-03-27T08:45:52.235Z,100.00
2023-03-27T08:48:30.517Z,100.00
2023-03-27T08:51:19.043Z,100.00
2023-03-27T08:53:59.609Z,100.00
2023-03-27T08:56:30.773Z,100.00
2023-03-27T08:58:59.589Z,100.00
2023-03-27T09:01:54.237Z,100.00
2023-03-27T09:04:36.391Z,100.00
2023-03-27T09:07:11.917Z,100.00
2023-03-27T09:09:59.616Z,100.00
2023-03-27T09:12:56.966Z,100.00
2023-03-27T09:15:29.100Z,100.00
2023-03-27T09:18:15.771Z,100.00
2023-03-27T09:20:56.643Z,100.00
2023-03-27T09:23:24.767Z,100.00
2023-03-27T09:26:21.843Z,100.00
2023-03-27T09:29:30.190Z,100.00
2023-03-27T09:32:18.114Z,100.00
2023-03-27T09:34:46.223Z,100.00
2023-03-27T09:37:18.082Z,100.00
2023-03-27T09:39:50.360Z,100.00
2023-03-27T09:42:34.150Z,100.00
2023-03-27T09:45:08.342Z,100.00
2023-03-27T09:47:57.421Z,100.00
2023-03-27T09:50:33.221Z,100.00
2023-03-27T09:53:16.506Z,100.00
2023-03-27T09:55:53.232Z,100.00
2023-03-27T09:58:37.577Z,100.00
2023-03-27T10:01:16.299Z,100.00
2023-03-27T10:03:53.609Z,100.00
2023-03-27T10:06:39.020Z,100.00
2023-03-27T10:09:30.141Z,100.00
2023-03-27T10:12:16.918Z,100.00
2023-03-27T10:14:52.263Z,100.00
2023-03-27T10:17:28.355Z,100.00
2023-03-27T10:20:11.020Z,100.00
2023-03-27T10:22:42.615Z,100.00
2023-03-27T10:25:23.127Z,99.27
2023-03-27T10:28:20.038Z,96.70
2023-03-27T10:31:25.647Z,95.99
2023-03-27T10:34:43.669Z,97.88
2023-03-27T10:37:34.640Z,95.31
2023-03-27T10:40:26.984Z,95.94
2023-03-27T10:43:04.408Z,96.50
2023-03-27T10:45:44.501Z,98.79
2023-03-27T10:48:25.658Z,96.13
2023-03-27T10:50:55.347Z,98.13
2023-03-27T10:53:52.482Z,96.50
2023-03-27T10:56:33.907Z,98.95
2023-03-27T10:59:09.316Z,95.35
2023-03-27T11:01:51.289Z,94.46
2023-03-27T11:04:25.345Z,92.82
2023-03-27T11:07:03.801Z,96.20
2023-03-27T11:09:34.444Z,94.96
2023-03-27T11:12:12.299Z,89.18
2023-03-27T11:15:07.862Z,85.82
2023-03-27T11:17:52.657Z,86.42
2023-03-27T11:20:37.189Z,87.40
2023-03-27T11:23:09.901Z,88.25
2023-03-27T11:25:54.086Z,91.74
2023-03-27T11:28:45.230Z,91.12
2023-03-27T11:31:40.695Z,91.33
2023-03-27T11:34:29.315Z,90.91
2023-03-27T11:37:20.468Z,88.31
2023-03-27T11:39:56.057Z,88.20
2023-03-27T11:42:28.807Z,84.88
2023-03-27T11:44:57.225Z,84.83
2023-03-27T11:47:46.521Z,83.90
2023-03-27T11:50:40.785Z,85.36
2023-03-27T11:53:46.871Z,87.18
2023-03-27T11:56:33.274Z,87.21
2023-03-27T11:59:42.254Z,88.30
2023-03-27T12:02:49.552Z,86.85
2023-03-27T12:05:40.760Z,88.79
2023-03-27T12:08:17.413Z,88.53
2023-03-27T12:10:51.669Z,92.51
2023-03-27T12:14:18.587Z,86.17
2023-03-27T12:17:14.758Z,82.36
2023-03-27T12:20:28.583Z,84.11
2023-03-27T12:23:28.663Z,86.03
2023-03-27T12:26:19.406Z,83.55
2023-03-27T12:29:43.936Z,82.98
2023-03-27T12:32:46.482Z,85.51
2023-03-27T12:35:32.600Z,84.73
2023-03-27T12:38:03.573Z,82.04
2023-03-27T12:40:41.442Z,83.41
2023-03-27T12:43:29.829Z,83.52
2023-03-27T12:46:34.872Z,84.12
2023-03-27T12:49:10.746Z,82.56
2023-03-27T12:51:58.086Z,81.74
2023-03-27T12:55:06.100Z,81.57
2023-03-27T12:57:53.475Z,82.91
2023-03-27T13:00:42.463Z,83.05
2023-03-27T13:03:52.183Z,81.78
2023-03-27T13:06:44.932Z,83.29
2023-03-27T13:09:34.292Z,85.32
2023-03-27T13:12:36.280Z,84.84
2023-03-27T13:15:27.610Z,85.71
2023-03-27T13:18:26.059Z,87.96
2023-03-27T13:21:05.176Z,86.36
2023-03-27T13:23:44.755Z,87.77
2023-03-27T13:26:28.130Z,86.20
2023-03-27T13:29:02.364Z,89.46
2023-03-27T13:31:45.483Z,90.00
2023-03-27T13:34:42.305Z,85.71
2023-03-27T13:37:15.601Z,87.19
2023-03-27T13:40:00.133Z,85.44
2023-03-27T13:42:40.689Z,82.29
2023-03-27T13:45:29.936Z,85.21
2023-03-27T13:48:57.689Z,87.49
2023-03-27T13:51:35.128Z,91.30
2023-03-27T13:54:42.049Z,94.31
2023-03-27T13:57:31.594Z,91.81
2023-03-27T14:00:27.807Z,91.69
2023-03-27T14:03:28.022Z,90.96
2023-03-27T14:06:20.366Z,92.05
2023-03-27T14:09:06.648Z,94.86
2023-03-27T14:12:08.549Z,98.05
2023-03-27T14:15:19.046Z,100.00
2023-03-27T14:18:36.597Z,100.00
2023-03-27T14:21:07.458Z,100.00
2023-03-27T14:24:04.371Z,100.00
2023-03-27T14:26:46.238Z,100.00
2023-03-27T14:29:18.087Z,100.00
2023-03-27T14:31:49.430Z,100.00
2023-03-27T14:34:35.247Z,100.00
2023-03-27T14:37:36.655Z,100.00
2023-03-27T14:40:21.034Z,100.00
2023-03-27T14:42:52.874Z,100.00
2023-03-27T14:45:27.353Z,100.00
2023-03-27T14:48:22.707Z,100.00
2023-03-27T14:50:55.473Z,100.00
2023-03-27T14:53:26.839Z,100.00
2023-03-27T14:56:46.327Z,100.00
2023-03-27T14:59:35.734Z,100.00
2023-03-27T15:02:14.519Z,100.00
2023-03-27T15:04:44.113Z,100.00
2023-03-27T15:07:22.683Z,100.00
2023-03-27T15:10:22.600Z,100.00
2023-03-27T15:13:10.900Z,100.00
2023-03-27T15:15:47.366Z,100.00
2023-03-27T15:18:42.348Z,100.00
2023-03-27T15:21:20.313Z,100.00
2023-03-27T15:23:58.962Z,100.00
2023-03-27T15:26:31.657Z,100.00
2023-03-27T15:29:14.755Z,100.00
2023-03-27T15:31:43.709Z,100.00
2023-03-27T15:34:46.851Z,100.00
2023-03-27T15:37:25.660Z,100.00
2023-03-27T15:40:16.266Z,100.00
2023-03-27T15:42:52.998Z,100.00
2023-03-27T15:45:24.795Z,100.00
2023-03-27T15:48:01.548Z,100.00
2023-03-27T15:50:29.862Z,100.00
2023-03-27T15:52:59.396Z,100.00
2023-03-27T15:55:44.608Z,100.00
2023-03-27T15:58:37.067Z,100.00
2023-03-27T16:01:18.089Z,100.00
2023-03-27T16:03:48.544Z,100.00
2023-03-27T16:06:26.731Z,100.00
2023-03-27T16:08:55.416Z,100.00
2023-03-27T16:11:56.267Z,100.00
2023-03-27T16:14:52.421Z,100.00
2023-03-27T16:17:34.548Z,100.00
2023-03-27T16:20:13.223Z,100.00
2023-03-27T16:22:41.852Z,100.00
2023-03-27T16:25:11.241Z,100.00
2023-03-27T16:27:53.125Z,100.00
2023-03-27T16:30:21.165Z,99.62
2023-03-27T16:32:49.749Z,98.59
2023-03-27T16:35:17.961Z,98.31
2023-03-27T16:37:46.463Z,98.65
2023-03-27T16:40:15.324Z,100.00
2023-03-27T16:42:43.857Z,100.00
2023-03-27T16:45:11.992Z,100.00
2023-03-27T16:47:41.884Z,100.00
2023-03-27T16:50:16.011Z,100.00
2023-03-27T16:52:44.466Z,100.00
2023-03-27T16:55:14.145Z,100.00
2023-03-27T16:57:42.699Z,100.00
2023-03-27T17:00:12.344Z,100.00
2023-03-27T17:02:40.979Z,100.00
2023-03-27T17:05:09.674Z,100.00
2023-03-27T17:07:38.394Z,100.00
2023-03-27T17:10:07.070Z,100.00
2023-03-27T17:12:35.248Z,100.00
2023-03-27T17:15:04.155Z,100.00
2023-03-27T17:17:32.442Z,100.00
2023-03-27T17:20:00.928Z,100.00
2023-03-27T17:22:30.352Z,100.00
2023-03-27T17:25:01.340Z,100.00
2023-03-27T17:27:30.009Z,100.00
2023-03-27T17:29:58.191Z,100.00
2023-03-27T17:32:27.193Z,100.00
2023-03-27T17:34:55.662Z,100.00
2023-03-27T17:37:24.311Z,100.00
2023-03-27T17:39:52.246Z,100.00
2023-03-27T17:42:20.192Z,100.00
2023-03-27T17:44:48.326Z,100.00
2023-03-27T17:47:16.566Z,100.00
2023-03-27T17:49:45.514Z,98.07
2023-03-27T17:52:14.527Z,95.83
2023-03-27T17:54:42.100Z,97.66
2023-03-27T17:57:10.670Z,95.28
2023-03-27T17:59:38.664Z,95.68
2023-03-27T18:02:07.552Z,95.52
2023-03-27T18:04:35.718Z,97.05
2023-03-27T18:07:04.250Z,94.65
2023-03-27T18:09:34.184Z,94.97
2023-03-27T18:12:02.635Z,95.30
2023-03-27T18:14:30.518Z,95.88
2023-03-27T18:16:58.560Z,95.54
2023-03-27T18:19:26.599Z,95.21
2023-03-27T18:21:54.969Z,95.61
2023-03-27T18:24:23.038Z,97.43
2023-03-27T18:26:51.457Z,97.79
2023-03-27T18:29:21.599Z,98.44
2023-03-27T18:31:50.278Z,98.77
2023-03-27T18:34:18.360Z,99.57
2023-03-27T18:36:51.261Z,99.79
2023-03-27T18:39:19.378Z,97.81
2023-03-27T18:41:47.722Z,99.08
2023-03-27T18:44:16.073Z,98.81
2023-03-27T18:46:44.208Z,98.40
2023-03-27T18:49:23.807Z,99.14
2023-03-27T18:51:52.811Z,99.02
2023-03-27T18:54:20.877Z,99.86
2023-03-27T18:56:49.499Z,99.42
2023-03-27T18:59:18.399Z,99.71
2023-03-27T19:01:46.892Z,100.00
2023-03-27T19:04:17.107Z,100.00
2023-03-27T19:06:46.840Z,100.00
2023-03-27T19:09:15.021Z,100.00
2023-03-27T19:11:44.114Z,100.00
2023-03-27T19:14:30.882Z,100.00
2023-03-27T19:17:19.310Z,100.00
2023-03-27T19:20:09.605Z,99.79
2023-03-27T19:22:51.042Z,98.84
2023-03-27T19:25:38.334Z,98.40
2023-03-27T19:28:06.603Z,98.11
2023-03-27T19:30:34.672Z,98.42
2023-03-27T19:33:02.964Z,97.39
2023-03-27T19:35:31.113Z,95.92
2023-03-27T19:37:59.650Z,94.12
2023-03-27T19:40:27.548Z,94.54
2023-03-27T19:42:55.703Z,94.02
2023-03-27T19:45:23.640Z,91.17
2023-03-27T19:47:52.536Z,93.03
2023-03-27T19:50:21.116Z,93.32
2023-03-27T19:53:09.049Z,92.22
2023-03-27T19:55:37.926Z,92.17
2023-03-27T19:58:06.292Z,91.07
2023-03-27T20:00:38.781Z,91.36
2023-03-27T20:03:10.650Z,90.54
2023-03-27T20:05:41.201Z,91.20
2023-03-27T20:08:09.789Z,91.08
2023-03-27T20:10:37.647Z,90.56
2023-03-27T20:13:06.181Z,90.55
2023-03-27T20:15:34.783Z,90.68
2023-03-27T20:18:04.959Z,91.05
2023-03-27T20:20:33.589Z,90.95
2023-03-27T20:23:03.703Z,91.78
2023-03-27T20:25:34.332Z,91.15
2023-03-27T20:28:05.884Z,92.14
2023-03-27T20:30:37.131Z,92.37
2023-03-27T20:33:06.226Z,93.10
2023-03-27T20:35:37.075Z,94.59
2023-03-27T20:38:11.529Z,95.23
2023-03-27T20:40:53.151Z,94.83
2023-03-27T20:43:27.533Z,95.14
2023-03-27T20:45:59.270Z,95.89
2023-03-27T20:48:40.558Z,96.04
2023-03-27T20:51:16.061Z,99.18
2023-03-27T20:53:54.522Z,96.34
2023-03-27T20:56:23.302Z,95.41
2023-03-27T20:58:54.272Z,95.56
2023-03-27T21:01:28.165Z,95.99
2023-03-27T21:03:58.653Z,97.46
2023-03-27T21:06:26.839Z,97.07
2023-03-27T21:08:56.362Z,96.26
2023-03-27T21:11:24.050Z,96.30
2023-03-27T21:13:53.492Z,96.24
2023-03-27T21:16:21.773Z,97.27
2023-03-27T21:18:51.196Z,98.71
2023-03-27T21:21:19.532Z,98.35
2023-03-27T21:23:48.353Z,98.96
2023-03-27T21:26:17.761Z,98.70
2023-03-27T21:28:46.357Z,98.87
2023-03-27T21:31:14.170Z,98.67
2023-03-27T21:33:42.822Z,99.75
2023-03-27T21:36:13.086Z,100.00
2023-03-27T21:38:41.490Z,100.00
2023-03-27T21:41:14.451Z,100.00
2023-03-27T21:43:42.873Z,100.00
2023-03-27T21:46:10.943Z,100.00
2023-03-27T21:48:45.064Z,100.00
2023-03-27T21:51:12.949Z,100.00
2023-03-27T21:53:42.803Z,100.00
2023-03-27T21:56:10.792Z,100.00
2023-03-27T21:58:39.350Z,100.00
2023-03-27T22:01:07.442Z,100.00
2023-03-27T22:03:35.959Z,100.00
2023-03-27T22:06:11.544Z,100.00
2023-03-27T22:08:43.046Z,100.00
2023-03-27T22:11:12.659Z,100.00
2023-03-27T22:13:42.287Z,100.00
2023-03-27T22:16:12.595Z,100.00
2023-03-27T22:18:41.628Z,100.00
2023-03-27T22:21:24.297Z,100.00
2023-03-27T22:23:54.069Z,100.00
2023-03-27T22:26:29.493Z,100.00
2023-03-27T22:28:58.243Z,100.00
2023-03-27T22:31:27.626Z,100.00
2023-03-27T22:33:56.593Z,100.00
2023-03-27T22:36:24.788Z,100.00
2023-03-27T22:38:52.793Z,100.00
2023-03-27T22:41:20.470Z,100.00
2023-03-27T22:43:49.835Z,100.00
2023-03-27T22:46:23.662Z,100.00
2023-03-27T22:48:57.082Z,100.00
2023-03-27T22:51:28.235Z,100.00
2023-03-27T22:53:58.447Z,100.00
2023-03-27T22:56:27.169Z,100.00
2023-03-27T22:58:56.008Z,100.00
2023-03-27T23:01:24.663Z,100.00
2023-03-27T23:03:54.430Z,100.00
2023-03-27T23:06:23.984Z,100.00
2023-03-27T23:08:56.145Z,100.00
2023-03-27T23:11:25.192Z,100.00
2023-03-27T23:13:54.060Z,100.00
2023-03-27T23:16:23.623Z,100.00
2023-03-27T23:18:52.381Z,100.00
2023-03-27T23:21:21.810Z,100.00
2023-03-27T23:23:50.013Z,100.00
2023-03-27T23:26:18.475Z,100.00
2023-03-27T23:28:46.998Z,100.00
2023-03-27T23:31:17.726Z,100.00
2023-03-27T23:33:47.781Z,100.00
2023-03-27T23:36:19.759Z,100.00
2023-03-27T23:38:48.019Z,100.00
2023-03-27T23:41:17.303Z,100.00
2023-03-27T23:43:45.697Z,100.00
2023-03-27T23:46:15.757Z,100.00
2023-03-27T23:48:45.085Z,100.00
2023-03-27T23:51:16.655Z,100.00
2023-03-27T23:53:45.465Z,100.00
2023-03-27T23:56:14.210Z,100.00
2023-03-27T23:58:42.501Z,100.00
